createdAt,value
2022-08-19T00:00:02.398Z,78
2022-08-19T00:20:02.978Z,80
2022-08-19T00:40:02.418Z,81
2022-08-19T01:00:03.655Z,82
2022-08-19T01:20:03.120Z,82
2022-08-19T01:40:09.376Z,84
2022-08-19T02:00:02.869Z,84
2022-08-19T02:20:02.380Z,84
2022-08-19T02:40:03.469Z,84
2022-08-19T03:00:02.626Z,85
2022-08-19T03:20:02.598Z,85
2022-08-19T03:40:03.206Z,85
2022-08-19T04:00:14.082Z,85
2022-08-19T04:20:07.303Z,85
2022-08-19T04:40:03.050Z,85
2022-08-19T05:00:02.316Z,84
2022-08-19T05:20:02.580Z,84
2022-08-19T05:40:03.023Z,84
2022-08-19T06:00:02.288Z,84
2022-08-19T06:20:02.852Z,84
2022-08-19T06:40:02.392Z,84
2022-08-19T07:00:02.805Z,83
2022-08-19T07:20:09.539Z,83
2022-08-19T07:40:02.821Z,83
2022-08-19T08:00:03.143Z,83
2022-08-19T08:20:02.650Z,82
2022-08-19T08:40:03.183Z,82
2022-08-19T09:00:04.606Z,81
2022-08-19T09:20:03.194Z,80
2022-08-19T09:40:02.991Z,78
2022-08-19T10:00:02.455Z,76
2022-08-19T10:20:03.147Z,75
2022-08-19T10:40:02.482Z,74
2022-08-19T11:00:02.793Z,73
2022-08-19T11:20:02.379Z,72
2022-08-19T11:40:03.024Z,71
2022-08-19T12:00:02.435Z,70
2022-08-19T12:20:03.117Z,70
2022-08-19T12:40:02.725Z,72
2022-08-19T13:00:07.509Z,70
2022-08-19T13:20:02.345Z,69
2022-08-19T13:40:03.033Z,69
2022-08-19T14:00:02.565Z,69
2022-08-19T14:20:11.214Z,69
2022-08-19T14:40:02.460Z,68
2022-08-19T15:00:02.957Z,68
2022-08-19T15:20:02.703Z,69
2022-08-19T15:40:03.142Z,70
2022-08-19T16:00:03.699Z,70
2022-08-19T16:20:02.527Z,70
2022-08-19T16:40:03.081Z,71
2022-08-19T17:00:02.433Z,71
2022-08-19T17:20:03.197Z,72
2022-08-19T17:40:02.631Z,73
2022-08-19T18:00:08.994Z,73
2022-08-19T18:20:02.803Z,74
2022-08-19T18:40:08.447Z,75
2022-08-19T19:00:02.889Z,75
2022-08-19T19:20:03.277Z,76
2022-08-19T19:40:02.823Z,76
2022-08-19T20:00:10.287Z,78
2022-08-19T20:20:02.917Z,78
2022-08-19T20:40:02.675Z,79
2022-08-19T21:00:04.175Z,79
2022-08-19T21:20:02.985Z,79
2022-08-19T21:40:03.204Z,79
2022-08-19T22:00:02.530Z,79
2022-08-19T22:20:02.607Z,80
2022-08-19T22:40:05.780Z,80
2022-08-19T23:00:03.238Z,80
2022-08-19T23:20:02.752Z,80
2022-08-19T23:40:03.212Z,81
